Almansa, Spain
Current Conditions -  °F | °C
As of 7:00 AM on Wednesday 26 Nov 2014 (Local Time) from LEAB Reporting Station
Scattered Clouds Scattered Clouds  
Wind Chill: 46°   Ceiling: Unl
Heat Index: 48°   Visibility: 6mi
Dew Point: 48°   Wind: 6mph
Humidity: 100%   Direction: 180°S
Pressure: 29.94"   Gusts: NA
Location:  38.87°N, 1.1°W
Report Text: LEAB 260600Z 18005KT 9999 SCT032 09/09 Q1014 NOSIG
Loading
Personal Weather Stations






























Interactive Weather Map New forecast layout! Learn more

10-Day Weather Forecast

Advertisements
Track Severe Weather on mobile